createdAt,value
2022-10-22T00:01:46.384Z,1.08
2022-10-22T00:04:13.123Z,1.17
2022-10-22T00:06:39.919Z,1.48
2022-10-22T00:09:06.672Z,1.23
2022-10-22T00:11:33.487Z,1.10
2022-10-22T00:14:00.315Z,1.40
2022-10-22T00:16:27.020Z,1.17
2022-10-22T00:18:53.774Z,1.17
2022-10-22T00:21:20.597Z,0.98
2022-10-22T00:23:47.341Z,1.13
2022-10-22T00:26:14.193Z,1.20
2022-10-22T00:28:41.244Z,1.30
2022-10-22T00:31:08.276Z,1.35
2022-10-22T00:33:35.052Z,1.40
2022-10-22T00:36:01.989Z,1.25
2022-10-22T00:38:28.804Z,1.40
2022-10-22T00:40:56.214Z,1.10
2022-10-22T00:43:23.044Z,1.20
2022-10-22T00:45:49.763Z,1.02
2022-10-22T00:48:24.472Z,1.23
2022-10-22T00:50:55.736Z,1.00
2022-10-22T00:53:49.409Z,1.10
2022-10-22T00:56:16.684Z,1.10
2022-10-22T00:58:47.488Z,1.10
2022-10-22T01:01:18.829Z,1.23
2022-10-22T01:03:45.839Z,1.10
2022-10-22T01:06:19.136Z,1.20
2022-10-22T01:09:02.744Z,1.20
2022-10-22T01:11:51.213Z,1.40
2022-10-22T01:14:45.609Z,1.20
2022-10-22T01:17:32.158Z,1.10
2022-10-22T01:20:26.710Z,1.03
2022-10-22T01:23:13.278Z,1.15
2022-10-22T01:26:06.213Z,1.17
2022-10-22T01:28:59.831Z,1.27
2022-10-22T01:31:32.429Z,1.25
2022-10-22T01:34:00.561Z,1.27
2022-10-22T01:36:33.251Z,1.13
2022-10-22T01:39:01.905Z,1.23
2022-10-22T01:41:29.803Z,1.15
2022-10-22T01:43:56.743Z,1.20
2022-10-22T01:46:27.172Z,1.20
2022-10-22T01:49:11.804Z,1.20
2022-10-22T01:52:11.982Z,1.50
2022-10-22T01:55:19.725Z,1.20
2022-10-22T01:57:54.120Z,1.35
2022-10-22T02:00:21.572Z,1.43
2022-10-22T02:02:58.521Z,1.30
2022-10-22T02:05:32.450Z,1.40
2022-10-22T02:08:25.019Z,1.10
2022-10-22T02:10:53.745Z,1.67
2022-10-22T02:13:26.748Z,1.23
2022-10-22T02:15:56.190Z,1.30
2022-10-22T02:18:28.152Z,1.45
2022-10-22T02:20:55.183Z,1.42
2022-10-22T02:23:22.324Z,1.30
2022-10-22T02:25:56.047Z,1.47
2022-10-22T02:28:29.307Z,1.40
2022-10-22T02:31:06.741Z,1.42
2022-10-22T02:33:40.246Z,1.30
2022-10-22T02:36:08.383Z,1.20
2022-10-22T02:38:36.486Z,1.20
2022-10-22T02:41:04.246Z,1.40
2022-10-22T02:43:31.076Z,1.40
2022-10-22T02:45:58.008Z,1.30
2022-10-22T02:48:24.781Z,1.35
2022-10-22T02:50:51.571Z,1.43
2022-10-22T02:53:18.329Z,1.23
2022-10-22T02:55:45.042Z,1.60
2022-10-22T02:58:11.907Z,1.20
2022-10-22T03:00:38.671Z,1.20
2022-10-22T03:03:05.587Z,1.30
2022-10-22T03:05:32.644Z,1.20
2022-10-22T03:07:59.391Z,1.30
2022-10-22T03:10:27.257Z,1.15
2022-10-22T03:12:54.079Z,1.27
2022-10-22T03:15:20.885Z,1.40
2022-10-22T03:17:47.600Z,1.50
2022-10-22T03:20:14.591Z,1.30
2022-10-22T03:22:43.779Z,1.25
2022-10-22T03:25:20.961Z,1.13
2022-10-22T03:27:48.681Z,1.37
2022-10-22T03:30:15.437Z,1.58
2022-10-22T03:32:42.171Z,1.20
2022-10-22T03:35:09.164Z,1.10
2022-10-22T03:37:37.072Z,1.50
2022-10-22T03:40:06.562Z,1.40
2022-10-22T03:42:33.527Z,1.30
2022-10-22T03:45:00.232Z,1.35
2022-10-22T03:47:27.025Z,1.33
2022-10-22T03:49:53.853Z,1.13
2022-10-22T03:52:20.618Z,1.10
2022-10-22T03:54:47.440Z,1.38
2022-10-22T03:57:14.655Z,1.30
2022-10-22T03:59:44.754Z,1.20
2022-10-22T04:02:14.776Z,1.30
2022-10-22T04:04:41.689Z,1.20
2022-10-22T04:07:09.103Z,1.05
2022-10-22T04:09:39.647Z,1.20
2022-10-22T04:12:06.663Z,1.60
2022-10-22T04:14:33.502Z,1.40
2022-10-22T04:17:00.223Z,1.20
2022-10-22T04:19:27.052Z,1.30
2022-10-22T04:22:00.851Z,1.45
2022-10-22T04:24:32.016Z,1.20
2022-10-22T04:26:59.188Z,1.13
2022-10-22T04:29:26.170Z,1.20
2022-10-22T04:31:53.455Z,1.40
2022-10-22T04:34:20.345Z,1.20
2022-10-22T04:36:49.852Z,1.40
2022-10-22T04:39:16.660Z,1.40
2022-10-22T04:41:43.353Z,1.93
2022-10-22T04:44:12.474Z,1.70
2022-10-22T04:46:43.951Z,1.73
2022-10-22T04:49:10.802Z,1.83
2022-10-22T04:51:40.081Z,1.70
2022-10-22T04:54:06.912Z,1.40
2022-10-22T04:56:33.707Z,1.30
2022-10-22T04:59:03.187Z,1.30
2022-10-22T05:01:33.864Z,1.30
2022-10-22T05:04:03.064Z,1.65
2022-10-22T05:06:31.253Z,1.10
2022-10-22T05:09:03.797Z,1.30
2022-10-22T05:11:35.699Z,1.30
2022-10-22T05:14:04.825Z,1.17
2022-10-22T05:16:33.290Z,1.20
2022-10-22T05:19:01.902Z,1.20
2022-10-22T05:21:29.128Z,1.20
2022-10-22T05:23:57.324Z,1.00
2022-10-22T05:26:24.158Z,1.20
2022-10-22T05:28:51.851Z,1.20
2022-10-22T05:31:19.052Z,1.30
2022-10-22T05:33:48.365Z,1.40
2022-10-22T05:36:24.711Z,1.17
2022-10-22T05:38:51.402Z,1.75
2022-10-22T05:41:21.635Z,1.65
2022-10-22T05:43:48.724Z,1.40
2022-10-22T05:46:22.244Z,1.20
2022-10-22T05:48:51.859Z,1.27
2022-10-22T05:51:19.060Z,1.27
2022-10-22T05:53:46.538Z,1.20
2022-10-22T05:56:15.746Z,1.37
2022-10-22T05:58:44.511Z,1.15
2022-10-22T06:01:26.585Z,1.20
2022-10-22T06:03:58.518Z,1.20
2022-10-22T06:06:38.422Z,1.17
2022-10-22T06:12:07.767Z,1.80
2022-10-22T06:14:34.538Z,1.10
2022-10-22T06:17:01.274Z,1.40
2022-10-22T06:19:28.373Z,1.65
2022-10-22T06:21:55.141Z,1.30
2022-10-22T06:24:21.894Z,2.72
2022-10-22T06:26:52.091Z,1.67
2022-10-22T06:29:18.970Z,1.92
2022-10-22T06:31:45.868Z,2.17
2022-10-22T06:34:14.160Z,2.00
2022-10-22T06:39:12.672Z,2.17
2022-10-22T06:41:39.669Z,2.33
2022-10-22T06:44:06.454Z,2.35
2022-10-22T06:46:33.240Z,2.40
2022-10-22T06:49:01.911Z,2.40
2022-10-22T06:51:30.045Z,2.50
2022-10-22T06:53:58.158Z,2.40
2022-10-22T06:56:27.260Z,2.40
2022-10-22T06:58:55.887Z,1.97
2022-10-22T07:01:25.855Z,2.25
2022-10-22T07:03:53.396Z,2.15
2022-10-22T07:06:21.510Z,2.40
2022-10-22T07:08:48.912Z,2.30
2022-10-22T07:11:24.618Z,2.27
2022-10-22T07:13:53.676Z,2.17
2022-10-22T07:16:20.493Z,2.50
2022-10-22T07:18:48.264Z,2.60
2022-10-22T07:21:17.699Z,2.50
2022-10-22T07:23:45.116Z,2.20
2022-10-22T07:26:14.016Z,1.85
2022-10-22T07:28:41.219Z,2.10
2022-10-22T07:31:10.083Z,2.10
2022-10-22T07:33:37.995Z,2.63
2022-10-22T07:36:08.319Z,2.30
2022-10-22T07:38:36.188Z,2.03
2022-10-22T07:41:03.972Z,1.88
2022-10-22T07:43:30.765Z,1.92
2022-10-22T07:45:57.528Z,1.70
2022-10-22T07:48:24.783Z,1.83
2022-10-22T07:50:52.433Z,1.80
2022-10-22T07:53:19.220Z,1.63
2022-10-22T07:55:51.619Z,1.20
2022-10-22T07:58:19.586Z,1.20
2022-10-22T08:00:46.912Z,1.13
2022-10-22T08:03:18.345Z,1.30
2022-10-22T08:05:48.413Z,1.30
2022-10-22T08:08:16.818Z,1.60
2022-10-22T08:10:44.490Z,1.90
2022-10-22T08:13:11.773Z,2.20
2022-10-22T08:15:39.107Z,1.83
2022-10-22T08:18:06.456Z,1.98
2022-10-22T08:20:33.305Z,2.28
2022-10-22T08:23:02.890Z,3.50
2022-10-22T08:25:30.163Z,2.60
2022-10-22T08:27:56.946Z,2.45
2022-10-22T08:30:23.801Z,2.50
2022-10-22T08:32:54.133Z,2.60
2022-10-22T08:35:21.543Z,2.30
2022-10-22T08:37:48.377Z,2.40
2022-10-22T08:40:37.893Z,2.72
2022-10-22T08:43:42.171Z,2.65
2022-10-22T08:46:30.082Z,2.47
2022-10-22T08:49:00.907Z,2.65
2022-10-22T08:51:33.035Z,2.13
2022-10-22T08:54:02.571Z,2.50
2022-10-22T08:56:31.439Z,2.50
2022-10-22T08:59:23.173Z,2.28
2022-10-22T09:01:54.355Z,2.42
2022-10-22T09:04:38.815Z,2.77
2022-10-22T09:07:05.583Z,2.40
2022-10-22T09:09:39.804Z,2.60
2022-10-22T09:12:20.106Z,2.20
2022-10-22T09:14:47.530Z,2.30
2022-10-22T09:17:21.200Z,2.50
2022-10-22T09:20:20.027Z,2.60
2022-10-22T09:22:58.646Z,2.30
2022-10-22T09:25:31.552Z,2.28
2022-10-22T09:27:58.328Z,2.63
2022-10-22T09:30:28.696Z,2.10
2022-10-22T09:33:20.165Z,2.38
2022-10-22T09:36:02.782Z,2.30
2022-10-22T09:38:33.116Z,2.45
2022-10-22T09:41:02.109Z,2.50
2022-10-22T09:43:29.141Z,2.27
2022-10-22T09:46:04.928Z,2.72
2022-10-22T09:48:37.276Z,2.58
2022-10-22T09:51:12.426Z,2.65
2022-10-22T09:53:44.079Z,2.60
2022-10-22T09:56:24.142Z,2.23
2022-10-22T09:58:51.297Z,2.30
2022-10-22T10:01:23.000Z,2.08
2022-10-22T10:03:50.593Z,1.92
2022-10-22T10:06:22.241Z,2.30
2022-10-22T10:08:49.802Z,2.43
2022-10-22T10:11:46.027Z,1.90
2022-10-22T10:14:12.837Z,2.30
2022-10-22T10:17:04.826Z,2.30
2022-10-22T10:20:00.033Z,2.13
2022-10-22T10:22:50.834Z,2.60
2022-10-22T10:25:27.020Z,1.80
2022-10-22T10:28:00.158Z,2.22
2022-10-22T10:30:27.533Z,2.20
2022-10-22T10:33:00.276Z,2.20
2022-10-22T10:35:51.947Z,2.33
2022-10-22T10:38:26.050Z,2.40
2022-10-22T10:41:04.032Z,2.70
2022-10-22T10:43:45.595Z,2.10
2022-10-22T10:46:21.532Z,2.28
2022-10-22T10:49:09.631Z,2.37
2022-10-22T10:52:19.023Z,2.58
2022-10-22T10:55:00.349Z,2.40
2022-10-22T10:57:42.693Z,2.20
2022-10-22T11:00:17.371Z,2.30
2022-10-22T11:03:21.195Z,2.40
2022-10-22T11:06:06.571Z,2.50
2022-10-22T11:08:42.995Z,1.80
2022-10-22T11:11:19.925Z,2.10
2022-10-22T11:14:11.377Z,2.38
2022-10-22T11:16:53.755Z,2.23
2022-10-22T11:20:05.144Z,2.50
2022-10-22T11:22:42.090Z,2.17
2022-10-22T11:25:16.717Z,2.60
2022-10-22T11:28:05.467Z,2.60
2022-10-22T11:30:37.210Z,2.60
2022-10-22T11:33:22.167Z,2.50
2022-10-22T11:35:50.505Z,2.50
2022-10-22T11:38:26.082Z,1.67
2022-10-22T11:40:57.335Z,2.20
2022-10-22T11:43:27.095Z,2.40
2022-10-22T11:46:09.380Z,2.35
2022-10-22T11:48:39.938Z,2.20
2022-10-22T11:51:34.557Z,2.60
2022-10-22T11:54:37.884Z,2.50
2022-10-22T11:57:21.488Z,2.40
2022-10-22T11:59:48.180Z,2.35
2022-10-22T12:02:44.328Z,2.38
2022-10-22T12:05:41.412Z,2.53
2022-10-22T12:08:15.697Z,2.45
2022-10-22T12:10:57.382Z,2.33
2022-10-22T12:13:32.012Z,2.20
2022-10-22T12:16:03.911Z,2.40
2022-10-22T12:18:45.930Z,2.30
2022-10-22T12:21:14.613Z,2.85
2022-10-22T12:23:42.363Z,2.10
2022-10-22T12:26:27.431Z,2.38
2022-10-22T12:29:01.397Z,1.80
2022-10-22T12:31:36.379Z,2.17
2022-10-22T12:34:03.505Z,2.17
2022-10-22T12:36:33.122Z,1.90
2022-10-22T12:39:01.561Z,2.28
2022-10-22T12:41:37.123Z,2.10
2022-10-22T12:44:05.352Z,2.00
2022-10-22T12:46:34.605Z,2.63
2022-10-22T12:49:04.733Z,2.60
2022-10-22T12:54:12.227Z,2.47
2022-10-22T12:56:41.959Z,2.38
2022-10-22T12:59:28.222Z,2.20
2022-10-22T13:01:55.624Z,2.20
2022-10-22T13:04:33.753Z,2.10
2022-10-22T13:07:03.650Z,2.70
2022-10-22T13:09:39.802Z,2.28
2022-10-22T13:12:08.627Z,2.08
2022-10-22T13:14:39.323Z,2.00
2022-10-22T13:17:17.025Z,2.50
2022-10-22T13:20:01.810Z,2.40
2022-10-22T13:22:33.530Z,2.20
2022-10-22T13:25:15.522Z,2.40
2022-10-22T13:27:55.063Z,2.20
2022-10-22T13:30:36.257Z,2.10
2022-10-22T13:33:22.184Z,2.10
2022-10-22T13:35:49.684Z,2.20
2022-10-22T13:38:26.284Z,2.38
2022-10-22T13:40:53.094Z,2.20
2022-10-22T13:43:20.069Z,2.25
2022-10-22T13:45:54.692Z,1.88
2022-10-22T13:48:24.098Z,1.90
2022-10-22T13:50:51.755Z,2.10
2022-10-22T13:53:22.097Z,1.80
2022-10-22T13:55:48.934Z,1.85
2022-10-22T14:00:52.907Z,2.00
2022-10-22T14:03:22.771Z,1.90
2022-10-22T14:05:50.226Z,1.97
2022-10-22T14:08:20.512Z,1.95
2022-10-22T14:10:47.926Z,1.85
2022-10-22T14:13:16.392Z,1.60
2022-10-22T14:15:45.452Z,1.92
2022-10-22T14:18:21.867Z,1.47
2022-10-22T14:20:48.672Z,1.83
2022-10-22T14:23:19.790Z,1.98
2022-10-22T14:25:47.627Z,1.85
2022-10-22T14:28:14.718Z,1.85
2022-10-22T14:30:42.329Z,1.97
2022-10-22T14:33:31.497Z,2.00
2022-10-22T14:36:02.621Z,1.60
2022-10-22T14:38:29.804Z,1.80
2022-10-22T14:40:57.942Z,1.10
2022-10-22T14:43:30.314Z,1.40
2022-10-22T14:45:57.756Z,1.40
2022-10-22T14:48:25.152Z,1.30
2022-10-22T14:50:52.447Z,1.20
2022-10-22T14:53:19.539Z,1.42
2022-10-22T14:55:47.612Z,1.30
2022-10-22T14:58:15.261Z,1.30
2022-10-22T15:00:43.030Z,1.40
2022-10-22T15:03:10.602Z,1.35
2022-10-22T15:18:15.130Z,1.40
2022-10-22T15:20:42.250Z,1.57
2022-10-22T15:23:09.224Z,1.50
2022-10-22T15:25:36.301Z,1.45
2022-10-22T15:28:09.595Z,1.70
2022-10-22T15:30:37.020Z,1.55
2022-10-22T15:33:04.051Z,1.50
2022-10-22T15:35:31.013Z,1.50
2022-10-22T15:37:58.081Z,1.77
2022-10-22T15:40:25.088Z,1.58
2022-10-22T15:42:52.085Z,1.50
2022-10-22T15:45:19.339Z,1.40
2022-10-22T15:47:48.360Z,1.20
2022-10-22T15:50:15.643Z,1.80
2022-10-22T15:52:42.820Z,1.50
2022-10-22T15:55:09.925Z,1.50
2022-10-22T15:57:38.030Z,1.40
2022-10-22T16:02:57.207Z,1.60
2022-10-22T16:05:24.226Z,1.60
2022-10-22T16:07:51.192Z,1.80
2022-10-22T16:10:18.316Z,1.80
2022-10-22T16:12:45.310Z,2.55
2022-10-22T16:15:13.127Z,2.00
2022-10-22T16:17:40.213Z,2.00
2022-10-22T16:20:07.690Z,1.83
2022-10-22T16:22:35.057Z,2.10
2022-10-22T16:25:02.289Z,2.30
2022-10-22T16:27:29.322Z,3.53
2022-10-22T16:29:56.296Z,3.30
2022-10-22T16:32:23.288Z,5.00
2022-10-22T16:34:50.581Z,4.00
2022-10-22T16:37:19.978Z,3.30
2022-10-22T16:39:48.210Z,2.83
2022-10-22T16:42:15.273Z,2.30
2022-10-22T16:44:51.461Z,2.30
2022-10-22T16:47:22.063Z,2.97
2022-10-22T16:49:52.178Z,2.95
2022-10-22T16:52:30.435Z,4.78
2022-10-22T16:54:57.481Z,6.20
2022-10-22T16:57:28.013Z,6.70
2022-10-22T16:59:55.157Z,7.13
2022-10-22T17:02:22.306Z,7.90
2022-10-22T17:04:49.220Z,7.63
2022-10-22T17:07:16.376Z,8.98
2022-10-22T17:09:43.347Z,8.15
2022-10-22T17:12:10.412Z,7.53
2022-10-22T17:14:40.377Z,6.65
2022-10-22T17:17:07.396Z,6.05
2022-10-22T17:19:34.337Z,6.25
2022-10-22T17:22:01.536Z,6.68
2022-10-22T17:24:28.497Z,5.00
2022-10-22T17:26:55.568Z,5.45
2022-10-22T17:29:22.638Z,6.38
2022-10-22T17:31:49.652Z,5.75
2022-10-22T17:34:17.716Z,5.20
2022-10-22T17:36:45.364Z,4.73
2022-10-22T17:39:16.996Z,4.85
2022-10-22T17:41:44.076Z,3.90
2022-10-22T17:44:12.566Z,3.67
2022-10-22T17:46:39.705Z,3.53
2022-10-22T17:49:12.679Z,3.57
2022-10-22T17:51:39.522Z,2.88
2022-10-22T17:54:09.015Z,2.55
2022-10-22T17:56:37.188Z,3.10
2022-10-22T17:59:04.254Z,3.40
2022-10-22T18:01:33.988Z,3.53
2022-10-22T18:04:14.048Z,3.40
2022-10-22T18:06:41.200Z,2.83
2022-10-22T18:09:12.348Z,5.60
2022-10-22T18:11:44.374Z,4.28
2022-10-22T18:14:14.085Z,4.77
2022-10-22T18:16:41.020Z,4.25
2022-10-22T18:19:08.096Z,4.30
2022-10-22T18:21:35.226Z,3.85
2022-10-22T18:24:02.236Z,4.10
2022-10-22T18:26:29.318Z,4.50
2022-10-22T18:28:58.176Z,3.75
2022-10-22T18:31:27.500Z,4.90
2022-10-22T18:33:55.825Z,5.50
2022-10-22T18:36:25.874Z,5.28
2022-10-22T18:38:57.877Z,4.70
2022-10-22T18:41:25.527Z,4.10
2022-10-22T18:44:03.543Z,3.55
2022-10-22T18:46:32.217Z,3.92
2022-10-22T18:48:59.359Z,3.38
2022-10-22T18:51:29.676Z,4.10
2022-10-22T18:54:05.054Z,4.50
2022-10-22T18:56:44.814Z,3.75
2022-10-22T18:59:21.767Z,4.07
2022-10-22T19:01:49.236Z,4.72
2022-10-22T19:04:16.684Z,3.70
2022-10-22T19:06:47.206Z,3.88
2022-10-22T19:09:15.940Z,4.78
2022-10-22T19:11:44.905Z,6.72
2022-10-22T19:14:14.574Z,5.10
2022-10-22T19:16:41.666Z,4.60
2022-10-22T19:19:11.898Z,4.60
2022-10-22T19:21:38.902Z,5.25
2022-10-22T19:24:11.095Z,4.38
2022-10-22T19:26:43.247Z,4.90
2022-10-22T19:29:12.531Z,4.90
2022-10-22T19:31:39.838Z,4.55
2022-10-22T19:34:06.954Z,6.30
2022-10-22T19:36:34.221Z,6.47
2022-10-22T19:39:02.387Z,6.95
2022-10-22T19:41:32.618Z,5.80
2022-10-22T19:44:01.115Z,5.68
2022-10-22T19:46:30.427Z,6.05
2022-10-22T19:48:57.451Z,6.20
2022-10-22T19:51:27.979Z,8.10
2022-10-22T19:54:00.465Z,6.73
2022-10-22T19:56:27.643Z,5.63
2022-10-22T19:58:55.267Z,6.82
2022-10-22T20:01:22.373Z,6.38
2022-10-22T20:03:49.765Z,6.90
2022-10-22T20:06:18.508Z,7.03
2022-10-22T20:08:46.529Z,5.95
2022-10-22T20:11:31.900Z,6.18
2022-10-22T20:13:59.142Z,5.57
2022-10-22T20:16:28.156Z,5.60
2022-10-22T20:18:55.193Z,5.27
2022-10-22T20:21:22.274Z,6.22
2022-10-22T20:23:53.274Z,6.22
2022-10-22T20:26:21.530Z,5.80
2022-10-22T20:28:48.418Z,6.18
2022-10-22T20:31:17.789Z,6.37
2022-10-22T20:33:44.825Z,5.80
2022-10-22T20:36:18.338Z,5.85
2022-10-22T20:38:46.214Z,6.78
2022-10-22T20:41:16.325Z,6.80
2022-10-22T20:43:48.222Z,4.67
2022-10-22T20:46:18.937Z,5.00
2022-10-22T20:48:46.702Z,4.97
2022-10-22T20:51:13.986Z,5.22
2022-10-22T20:53:41.032Z,5.63
2022-10-22T20:56:08.456Z,4.93
2022-10-22T20:58:36.360Z,4.35
2022-10-22T21:01:03.923Z,3.83
2022-10-22T21:03:31.356Z,5.10
2022-10-22T21:05:58.369Z,4.95
2022-10-22T21:08:25.313Z,4.43
2022-10-22T21:10:52.360Z,5.00
2022-10-22T21:13:19.450Z,4.40
2022-10-22T21:15:46.302Z,5.80
2022-10-22T21:18:13.655Z,7.03
2022-10-22T21:20:42.518Z,7.20
2022-10-22T21:23:09.492Z,5.93
2022-10-22T21:25:40.657Z,5.78
2022-10-22T21:28:10.305Z,7.53
2022-10-22T21:30:37.454Z,7.72
2022-10-22T21:33:04.340Z,7.63
2022-10-22T21:35:31.557Z,8.32
2022-10-22T21:37:58.537Z,9.00
2022-10-22T21:40:25.467Z,7.80
2022-10-22T21:42:52.949Z,9.25
2022-10-22T21:45:22.320Z,8.97
2022-10-22T21:47:49.582Z,7.68
2022-10-22T21:50:16.698Z,8.57
2022-10-22T21:52:43.580Z,7.22
2022-10-22T21:55:10.858Z,6.53
2022-10-22T21:57:38.096Z,4.83
2022-10-22T22:00:09.234Z,5.05
2022-10-22T22:02:36.151Z,4.53
2022-10-22T22:05:03.528Z,4.18
2022-10-22T22:07:30.569Z,3.60
2022-10-22T22:09:57.502Z,5.30
2022-10-22T22:12:24.699Z,5.28
2022-10-22T22:14:51.513Z,5.47
2022-10-22T22:17:18.454Z,6.75
2022-10-22T22:19:45.490Z,7.53
2022-10-22T22:22:12.450Z,6.97
2022-10-22T22:24:39.516Z,6.00
2022-10-22T22:27:06.891Z,6.00
2022-10-22T22:29:34.512Z,6.18
2022-10-22T22:32:01.466Z,8.38
2022-10-22T22:34:28.492Z,6.43
2022-10-22T22:36:55.455Z,5.40
2022-10-22T22:39:24.231Z,4.75
2022-10-22T22:41:51.393Z,4.50
2022-10-22T22:44:18.429Z,4.10
2022-10-22T22:46:45.277Z,5.90
2022-10-22T22:49:13.146Z,7.85
2022-10-22T22:51:40.089Z,8.15
2022-10-22T22:54:07.073Z,8.20
2022-10-22T22:56:34.292Z,6.53
2022-10-22T22:59:01.582Z,6.43
2022-10-22T23:01:33.565Z,6.28
2022-10-22T23:04:04.839Z,5.65
2022-10-22T23:06:35.096Z,7.28
2022-10-22T23:09:02.916Z,8.10
2022-10-22T23:11:29.818Z,7.43
2022-10-22T23:13:59.696Z,7.47
2022-10-22T23:16:29.610Z,5.63
2022-10-22T23:18:57.198Z,5.72
2022-10-22T23:21:31.424Z,4.97
2022-10-22T23:24:01.845Z,4.30
2022-10-22T23:26:35.058Z,6.20
2022-10-22T23:29:04.859Z,7.60
2022-10-22T23:31:31.837Z,6.35
2022-10-22T23:33:59.422Z,6.85
2022-10-22T23:36:27.297Z,6.20
2022-10-22T23:38:55.016Z,7.65
2022-10-22T23:41:22.331Z,5.00
2022-10-22T23:43:50.406Z,6.40
2022-10-22T23:46:17.665Z,8.15
2022-10-22T23:48:44.806Z,8.03
2022-10-22T23:51:14.120Z,7.53
2022-10-22T23:53:42.256Z,6.38
2022-10-22T23:56:13.711Z,7.65
2022-10-22T23:58:40.668Z,7.45
